Rechercher aéroport 
image banner adimage banner adimage banner ad
image banner ad

PS17 - Marlboro Corporate Park

Situé à Kennett Square, United States

ICAO - PS17, IATA -

Données fournies par Airmate  

Information générale

Coordonnées: N39°51'28" W75°41'47"
Élévation : 385 feet MSL.
Variation magnétique : -12° East
Voir autres Aéroports à Pennsylvania

Données opérationnelles

Special qualification required
Heure actuelle UTC:
Heure actuelle locale:
Météo à : KOQN - Brandywine ( 18 km )
METAR: KOQN 150655Z AUTO 00000KT 10SM BKN055 BKN070 BKN090 18/17 A2978 RMK AO2 P0001 LTG DSNT S
Voir NOTAMs / SUP AIP / TFR affectant cet aéroport [VIEW]
Fréquences de communication: [VIEW]

Pistes:

Coordonnées de l'aéroport

Adresse: Kennett Square United States

Vue satellite de PS17